createdAt,value
2024-05-09T00:00:41.650Z,12.82
2024-05-09T00:03:10.822Z,12.82
2024-05-09T00:05:42.521Z,12.83
2024-05-09T00:08:10.801Z,12.82
2024-05-09T00:10:40.294Z,12.73
2024-05-09T00:13:09.053Z,12.69
2024-05-09T00:15:37.314Z,12.63
2024-05-09T00:18:07.362Z,12.57
2024-05-09T00:20:39.153Z,12.53
2024-05-09T00:23:13.766Z,12.44
2024-05-09T00:25:45.037Z,12.38
2024-05-09T00:28:13.007Z,12.34
2024-05-09T00:30:41.059Z,12.23
2024-05-09T00:33:10.087Z,12.17
2024-05-09T00:35:39.180Z,12.11
2024-05-09T00:38:07.200Z,12.06
2024-05-09T00:40:43.233Z,12.03
2024-05-09T00:43:12.717Z,11.94
2024-05-09T00:45:41.304Z,11.83
2024-05-09T00:48:12.261Z,11.79
2024-05-09T00:50:43.451Z,11.73
2024-05-09T00:53:16.070Z,11.69
2024-05-09T00:55:44.635Z,11.64
2024-05-09T00:58:16.902Z,11.59
2024-05-09T01:00:44.902Z,11.49
2024-05-09T01:03:13.993Z,11.48
2024-05-09T01:05:43.482Z,11.43
2024-05-09T01:08:11.675Z,11.36
2024-05-09T01:10:41.729Z,11.32
2024-05-09T01:13:11.488Z,11.18
2024-05-09T01:15:39.880Z,11.17
2024-05-09T01:18:10.589Z,11.06
2024-05-09T01:20:42.425Z,11.09
2024-05-09T01:23:14.675Z,11.00
2024-05-09T01:25:44.363Z,10.98
2024-05-09T01:28:12.048Z,10.93
2024-05-09T01:30:39.448Z,10.90
2024-05-09T01:33:09.540Z,10.87
2024-05-09T01:35:41.861Z,10.83
2024-05-09T01:38:13.656Z,10.80
2024-05-09T01:40:41.504Z,10.74
2024-05-09T01:43:12.232Z,10.72
2024-05-09T01:45:40.929Z,10.67
2024-05-09T01:48:09.495Z,10.57
2024-05-09T01:50:40.961Z,10.52
2024-05-09T01:53:15.429Z,10.47
2024-05-09T01:55:43.415Z,10.40
2024-05-09T01:58:10.980Z,10.39
2024-05-09T02:00:42.377Z,10.34
2024-05-09T02:03:14.919Z,10.29
2024-05-09T02:05:48.528Z,10.27
2024-05-09T02:08:21.325Z,10.23
2024-05-09T02:10:50.699Z,10.12
2024-05-09T02:13:18.386Z,10.01
2024-05-09T02:15:45.891Z,9.98
2024-05-09T02:18:14.139Z,9.92
2024-05-09T02:20:43.237Z,9.88
2024-05-09T02:23:11.582Z,9.77
2024-05-09T02:25:41.766Z,9.78
2024-05-09T02:28:09.270Z,9.78
2024-05-09T02:30:40.614Z,9.80
2024-05-09T02:33:14.179Z,9.79
2024-05-09T02:35:43.794Z,9.76
2024-05-09T02:38:12.098Z,9.69
2024-05-09T02:40:40.472Z,9.62
2024-05-09T02:43:10.506Z,9.60
2024-05-09T02:45:39.807Z,9.58
2024-05-09T02:48:10.525Z,9.56
2024-05-09T02:50:40.798Z,9.46
2024-05-09T02:53:09.705Z,9.44
2024-05-09T02:55:39.271Z,9.44
2024-05-09T02:58:10.388Z,9.42
2024-05-09T03:00:41.084Z,9.34
2024-05-09T03:03:14.950Z,9.28
2024-05-09T03:05:46.634Z,9.20
2024-05-09T03:08:14.549Z,9.19
2024-05-09T03:10:42.304Z,9.09
2024-05-09T03:13:12.929Z,9.03
2024-05-09T03:15:41.666Z,9.02
2024-05-09T03:18:09.778Z,8.96
2024-05-09T03:20:38.669Z,8.99
2024-05-09T03:23:09.870Z,8.89
2024-05-09T03:25:38.867Z,8.92
2024-05-09T03:28:06.705Z,8.89
2024-05-09T03:30:40.498Z,8.84
2024-05-09T03:33:19.398Z,8.82
2024-05-09T03:35:49.591Z,8.80
2024-05-09T03:38:17.568Z,8.72
2024-05-09T03:40:47.225Z,8.66
2024-05-09T03:43:15.652Z,8.66
2024-05-09T03:45:43.808Z,8.67
2024-05-09T03:48:11.704Z,8.60
2024-05-09T03:50:39.650Z,8.58
2024-05-09T03:53:11.546Z,8.49
2024-05-09T03:55:39.323Z,8.46
2024-05-09T03:58:08.400Z,8.47
2024-05-09T04:00:39.288Z,8.44
2024-05-09T04:03:11.157Z,8.44
2024-05-09T04:05:42.117Z,8.44
2024-05-09T04:08:11.172Z,8.39
2024-05-09T04:10:40.992Z,8.34
2024-05-09T04:13:08.367Z,8.30
2024-05-09T04:15:35.807Z,8.28
2024-05-09T04:18:03.645Z,8.25
2024-05-09T04:20:38.184Z,8.23
2024-05-09T04:23:09.587Z,8.25
2024-05-09T04:25:37.690Z,8.22
2024-05-09T04:28:05.813Z,8.25
2024-05-09T04:30:38.442Z,8.20
2024-05-09T04:33:11.773Z,8.18
2024-05-09T04:35:44.564Z,8.21
2024-05-09T04:38:15.856Z,8.24
2024-05-09T04:40:43.611Z,8.25
2024-05-09T04:43:19.748Z,8.28
2024-05-09T04:45:47.093Z,8.30
2024-05-09T04:48:14.695Z,8.30
2024-05-09T04:50:42.536Z,8.34
2024-05-09T04:53:11.617Z,8.35
2024-05-09T04:55:40.530Z,8.35
2024-05-09T04:58:14.427Z,8.33
2024-05-09T05:00:42.046Z,8.32
2024-05-09T05:03:14.201Z,8.32
2024-05-09T05:05:45.214Z,8.38
2024-05-09T05:08:18.615Z,8.43
2024-05-09T05:10:48.228Z,8.46
2024-05-09T05:13:20.876Z,8.49
2024-05-09T05:15:51.508Z,8.54
2024-05-09T05:18:19.315Z,8.57
2024-05-09T05:20:47.189Z,8.61
2024-05-09T05:23:16.798Z,8.67
2024-05-09T05:25:44.827Z,8.67
2024-05-09T05:28:12.293Z,8.76
2024-05-09T05:30:40.920Z,8.79
2024-05-09T05:33:13.092Z,8.89
2024-05-09T05:35:43.722Z,8.98
2024-05-09T05:38:12.003Z,9.06
2024-05-09T05:40:40.708Z,9.13
2024-05-09T05:43:10.275Z,9.22
2024-05-09T05:45:38.424Z,9.32
2024-05-09T05:48:07.369Z,9.45
2024-05-09T05:50:37.582Z,9.56
2024-05-09T05:53:10.448Z,9.72
2024-05-09T05:55:39.724Z,9.84
2024-05-09T05:58:10.991Z,10.00
2024-05-09T06:00:41.468Z,10.13
2024-05-09T06:03:10.945Z,10.27
2024-05-09T06:05:40.446Z,10.43
2024-05-09T06:08:08.961Z,10.59
2024-05-09T06:10:39.685Z,10.62
2024-05-09T06:13:12.738Z,10.89
2024-05-09T06:15:41.209Z,11.13
2024-05-09T06:18:10.861Z,11.34
2024-05-09T06:20:40.439Z,11.51
2024-05-09T06:23:08.876Z,11.67
2024-05-09T06:25:36.936Z,11.90
2024-05-09T06:28:05.034Z,12.19
2024-05-09T06:30:42.858Z,12.45
2024-05-09T06:33:13.790Z,12.69
2024-05-09T06:35:43.324Z,12.90
2024-05-09T06:38:11.159Z,13.12
2024-05-09T06:40:43.133Z,13.43
2024-05-09T06:43:17.361Z,13.61
2024-05-09T06:45:47.876Z,13.82
2024-05-09T06:48:18.017Z,13.86
2024-05-09T06:50:45.870Z,13.60
2024-05-09T06:53:17.425Z,13.95
2024-05-09T06:55:45.102Z,13.95
2024-05-09T06:58:12.689Z,14.70
2024-05-09T07:00:41.826Z,14.89
2024-05-09T07:03:12.183Z,15.28
2024-05-09T07:05:41.267Z,15.28
2024-05-09T07:08:08.776Z,15.82
2024-05-09T07:10:37.173Z,15.79
2024-05-09T07:13:12.575Z,15.81
2024-05-09T07:15:40.634Z,15.85
2024-05-09T07:18:17.950Z,16.17
2024-05-09T07:20:47.529Z,-147.77
2024-05-09T07:23:15.953Z,-147.77
2024-05-09T07:25:43.676Z,-147.77
2024-05-09T07:28:15.796Z,-147.77
2024-05-09T07:30:43.916Z,-147.77
2024-05-09T07:33:17.558Z,-147.77
2024-05-09T07:35:46.584Z,-147.77
2024-05-09T07:38:14.290Z,-147.77
2024-05-09T07:40:41.846Z,-147.77
2024-05-09T07:43:16.626Z,-147.77
2024-05-09T07:45:53.497Z,-147.77
2024-05-09T07:52:38.837Z,-147.77
2024-05-09T07:53:47.702Z,-147.77
2024-05-09T07:56:19.937Z,-147.77
2024-05-09T07:58:51.351Z,-147.77
2024-05-09T08:01:19.747Z,-147.77
2024-05-09T08:03:50.714Z,-147.77
2024-05-09T08:06:23.133Z,-147.77
2024-05-09T08:08:50.874Z,-147.77
2024-05-09T08:11:22.841Z,-147.77
2024-05-09T08:13:50.486Z,-147.77
2024-05-09T08:16:22.557Z,-147.77
2024-05-09T08:19:05.532Z,-147.77
2024-05-09T08:22:03.388Z,-147.77
2024-05-09T08:24:31.064Z,-147.77
2024-05-09T08:27:06.118Z,-147.77
2024-05-09T08:29:41.322Z,-147.77
2024-05-09T08:32:27.842Z,-147.77
2024-05-09T08:34:57.268Z,-147.77
2024-05-09T08:37:34.927Z,-147.77
2024-05-09T08:40:16.588Z,-147.77
2024-05-09T08:42:53.266Z,-147.77
2024-05-09T08:45:24.941Z,-147.77
2024-05-09T08:48:06.435Z,-147.77
2024-05-09T08:50:38.878Z,-147.77
2024-05-09T08:53:10.104Z,-147.77
2024-05-09T08:58:45.441Z,-147.77
2024-05-09T09:01:15.949Z,-147.77
2024-05-09T09:03:48.686Z,-147.77
2024-05-09T09:06:25.560Z,-147.77
2024-05-09T09:08:53.483Z,-147.77
2024-05-09T09:11:21.176Z,-147.77
2024-05-09T09:13:48.664Z,-147.77
2024-05-09T09:16:17.245Z,-147.77
2024-05-09T09:18:52.802Z,-147.77
2024-05-09T09:21:20.670Z,-147.77
2024-05-09T09:23:48.501Z,-147.77
2024-05-09T09:26:45.061Z,-147.77
2024-05-09T09:29:26.342Z,-147.77
2024-05-09T09:32:30.285Z,-147.77
2024-05-09T09:34:57.916Z,-147.77
2024-05-09T09:37:30.586Z,-147.77
2024-05-09T09:40:07.137Z,-147.77
2024-05-09T09:42:38.018Z,-147.77
2024-05-09T09:45:10.987Z,-147.77
2024-05-09T09:47:41.107Z,-147.77
2024-05-09T09:50:14.314Z,-147.77
2024-05-09T09:52:44.425Z,-147.77
2024-05-09T09:55:14.019Z,-147.77
2024-05-09T09:57:44.447Z,-147.77
2024-05-09T10:00:17.410Z,-147.77
2024-05-09T10:02:55.995Z,-147.77
2024-05-09T10:05:23.750Z,-147.77
2024-05-09T10:07:53.314Z,-147.77
2024-05-09T10:10:31.910Z,-147.77
2024-05-09T10:13:07.875Z,-147.77
2024-05-09T10:15:55.824Z,-147.77
2024-05-09T10:18:34.266Z,-147.77
2024-05-09T10:21:19.678Z,-147.77
2024-05-09T10:24:02.717Z,-147.77
2024-05-09T10:26:40.078Z,-147.77
2024-05-09T10:29:18.209Z,-147.77
2024-05-09T10:31:47.312Z,-147.77
2024-05-09T10:34:23.370Z,-147.77
2024-05-09T10:36:55.484Z,-147.77
2024-05-09T10:39:23.642Z,-147.77
2024-05-09T10:41:51.350Z,-147.77
2024-05-09T10:44:19.232Z,-147.77
2024-05-09T10:46:46.847Z,-147.77
2024-05-09T10:49:21.329Z,-147.77
2024-05-09T10:51:51.671Z,-147.77
2024-05-09T10:54:25.848Z,-147.77
2024-05-09T10:57:05.169Z,-147.77
2024-05-09T10:59:42.707Z,-147.77
2024-05-09T11:02:11.422Z,-147.77
2024-05-09T11:04:41.487Z,-147.77
2024-05-09T11:07:18.031Z,-147.77
2024-05-09T11:09:46.404Z,-147.77
2024-05-09T11:12:14.690Z,-147.77
2024-05-09T11:14:58.943Z,-147.77
2024-05-09T11:17:26.626Z,-147.77
2024-05-09T11:19:55.924Z,-147.77
2024-05-09T11:22:25.620Z,-147.77
2024-05-09T11:25:02.247Z,-147.77
2024-05-09T11:27:41.231Z,-147.77
2024-05-09T11:30:26.987Z,-147.77
2024-05-09T11:32:59.735Z,-147.77
2024-05-09T11:35:35.727Z,-147.77
2024-05-09T11:38:03.551Z,-147.77
2024-05-09T11:43:01.772Z,-147.77
2024-05-09T11:45:29.242Z,-147.77
2024-05-09T11:48:02.357Z,-147.77
2024-05-09T11:50:35.258Z,-147.77
2024-05-09T11:53:07.549Z,-147.77
2024-05-09T11:55:39.369Z,-147.77
2024-05-09T11:58:18.750Z,-147.77
2024-05-09T12:00:52.574Z,-147.77
2024-05-09T12:03:20.992Z,-147.77
2024-05-09T12:06:00.731Z,-147.77
2024-05-09T12:08:28.461Z,-147.77
2024-05-09T12:10:57.524Z,-147.77
2024-05-09T12:13:25.067Z,-147.77
2024-05-09T12:15:54.805Z,-147.77
2024-05-09T12:18:39.144Z,-147.77
2024-05-09T12:24:05.105Z,-147.77
2024-05-09T12:26:53.068Z,-147.77
2024-05-09T12:29:37.550Z,-147.77
2024-05-09T12:35:34.892Z,-147.77
2024-05-09T12:38:14.767Z,-147.77
2024-05-09T12:40:52.583Z,-147.77
2024-05-09T12:43:35.649Z,-147.77
2024-05-09T12:46:09.571Z,-147.77
2024-05-09T12:48:37.484Z,-147.77
2024-05-09T12:51:43.670Z,-147.77
2024-05-09T12:54:21.798Z,-147.77
2024-05-09T12:56:55.446Z,-147.77
2024-05-09T12:59:22.998Z,-147.77
2024-05-09T13:01:50.652Z,-147.77
2024-05-09T13:04:18.305Z,-147.77
2024-05-09T13:06:45.846Z,-147.77
2024-05-09T13:09:19.494Z,-147.77
2024-05-09T13:11:47.272Z,-147.77
2024-05-09T13:14:15.950Z,-147.77
2024-05-09T13:16:43.436Z,-147.77
2024-05-09T13:19:15.075Z,-147.77
2024-05-09T13:21:42.878Z,-147.77
2024-05-09T13:24:10.349Z,-147.77
2024-05-09T13:26:38.879Z,-147.77
2024-05-09T13:29:08.881Z,-147.77
2024-05-09T13:31:37.391Z,-147.77
2024-05-09T13:34:05.262Z,-147.77
2024-05-09T13:36:33.135Z,-147.77
2024-05-09T13:39:06.998Z,-147.77
2024-05-09T13:41:44.162Z,-147.77
2024-05-09T13:44:16.199Z,-147.77
2024-05-09T13:46:47.472Z,-147.77
2024-05-09T13:49:17.978Z,-147.77
2024-05-09T13:51:45.965Z,-147.77
2024-05-09T13:54:21.105Z,-147.77
2024-05-09T13:56:49.971Z,-147.77
2024-05-09T13:59:20.490Z,-147.77
2024-05-09T14:02:07.220Z,-147.77
2024-05-09T14:13:14.623Z,-147.77
2024-05-09T14:15:58.209Z,-147.77
2024-05-09T14:18:25.750Z,-147.77
2024-05-09T14:21:04.922Z,-147.77
2024-05-09T14:23:43.383Z,-147.77
2024-05-09T14:26:11.433Z,-147.77
2024-05-09T14:28:50.603Z,-147.77
2024-05-09T15:11:44.372Z,-147.77
2024-05-09T15:14:11.765Z,-147.77
2024-05-09T15:16:44.717Z,-147.77
2024-05-09T15:19:12.206Z,-147.77
2024-05-09T15:21:42.395Z,-147.77
2024-05-09T15:24:09.967Z,-147.77
2024-05-09T15:26:38.035Z,-147.77
2024-05-09T15:29:06.802Z,-147.77
2024-05-09T15:31:34.981Z,-147.77
2024-05-09T15:34:05.160Z,-147.77
2024-05-09T15:36:36.104Z,-147.77
2024-05-09T15:39:03.454Z,-147.77
2024-05-09T15:41:31.286Z,-147.77
2024-05-09T15:43:58.654Z,-147.77
2024-05-09T15:46:26.082Z,-147.77
2024-05-09T15:48:54.026Z,-147.77
2024-05-09T15:51:22.491Z,-147.77
2024-05-09T15:53:49.823Z,-147.77
2024-05-09T15:56:17.836Z,-147.77
2024-05-09T15:58:45.498Z,-147.77
2024-05-09T16:01:15.206Z,-147.77
2024-05-09T16:03:45.202Z,-147.77
2024-05-09T16:09:04.060Z,-147.77
2024-05-09T16:11:31.967Z,-147.77
2024-05-09T16:13:59.586Z,-147.77
2024-05-09T16:16:27.660Z,-147.77
2024-05-09T16:18:55.674Z,-147.77
2024-05-09T16:21:23.106Z,-147.77
2024-05-09T16:23:51.853Z,-147.77
2024-05-09T16:26:26.114Z,-147.77
2024-05-09T16:28:53.589Z,-147.77
2024-05-09T16:31:21.105Z,-147.77
2024-05-09T16:33:49.593Z,-147.77
2024-05-09T16:36:17.615Z,-147.77
2024-05-09T16:38:45.873Z,-147.77
2024-05-09T16:41:15.021Z,-147.77
2024-05-09T16:43:43.344Z,-147.77
2024-05-09T16:46:14.239Z,-147.77
2024-05-09T16:48:45.864Z,-147.77
2024-05-09T16:51:13.619Z,-147.77
2024-05-09T16:53:41.214Z,-147.77
2024-05-09T16:56:11.766Z,-147.77
2024-05-09T16:58:43.700Z,-147.77
2024-05-09T17:01:13.669Z,-147.77
2024-05-09T17:03:41.811Z,-147.77
2024-05-09T17:06:14.469Z,-147.77
2024-05-09T17:08:48.650Z,-147.77
2024-05-09T17:11:16.588Z,-147.77
2024-05-09T17:13:45.978Z,-147.77
2024-05-09T17:16:18.271Z,-147.77
2024-05-09T17:18:46.571Z,-147.77
2024-05-09T17:21:14.358Z,-147.77
2024-05-09T17:23:42.020Z,-147.77
2024-05-09T17:26:09.524Z,-147.77
2024-05-09T17:28:37.713Z,-147.77
2024-05-09T17:31:05.582Z,-147.77
2024-05-09T17:33:33.343Z,-147.77
2024-05-09T17:36:00.964Z,-147.77
2024-05-09T17:38:28.858Z,-147.77
2024-05-09T17:40:56.469Z,-147.77
2024-05-09T17:43:24.271Z,-147.77
2024-05-09T17:45:51.871Z,-147.77
2024-05-09T17:48:19.823Z,-147.77
2024-05-09T17:50:48.942Z,-147.77
2024-05-09T17:53:17.385Z,-147.77
2024-05-09T17:55:44.910Z,-147.77
2024-05-09T17:58:13.538Z,-147.77
2024-05-09T18:00:42.437Z,-147.77
2024-05-09T18:03:12.200Z,-147.77
2024-05-09T18:05:41.805Z,-147.77
2024-05-09T18:08:11.367Z,-147.77
2024-05-09T18:10:55.368Z,-147.77
2024-05-09T18:13:23.759Z,-147.77
2024-05-09T18:15:51.266Z,-147.77
2024-05-09T18:18:19.002Z,-147.77
2024-05-09T18:20:48.212Z,-147.77
2024-05-09T18:23:18.323Z,-147.77
2024-05-09T18:25:47.675Z,-147.77
2024-05-09T18:28:17.785Z,-147.77
2024-05-09T18:30:49.184Z,-147.77
2024-05-09T18:33:17.070Z,-147.77
2024-05-09T18:35:45.766Z,-147.77
2024-05-09T18:38:13.751Z,-147.77
2024-05-09T18:40:43.639Z,-147.77
2024-05-09T18:43:12.735Z,-147.77
2024-05-09T18:45:43.532Z,16.80
2024-05-09T18:48:12.142Z,16.65
2024-05-09T18:50:41.306Z,16.56
2024-05-09T18:53:11.651Z,16.35
2024-05-09T18:55:42.666Z,16.30
2024-05-09T18:58:11.713Z,16.07
2024-05-09T19:00:41.814Z,15.96
2024-05-09T19:03:13.905Z,15.89
2024-05-09T19:05:45.257Z,15.80
2024-05-09T19:08:15.597Z,15.76
2024-05-09T19:10:47.903Z,15.57
2024-05-09T19:13:16.806Z,15.43
2024-05-09T19:15:45.811Z,15.25
2024-05-09T19:18:18.843Z,15.19
2024-05-09T19:20:46.977Z,15.05
2024-05-09T19:23:15.113Z,14.91
2024-05-09T19:25:43.313Z,14.94
2024-05-09T19:28:10.945Z,14.84
2024-05-09T19:30:41.658Z,14.69
2024-05-09T19:33:13.231Z,14.67
2024-05-09T19:35:42.225Z,14.65
2024-05-09T19:38:10.536Z,14.52
2024-05-09T19:40:38.263Z,14.45
2024-05-09T19:43:09.999Z,14.39
2024-05-09T19:45:38.458Z,14.34
2024-05-09T19:48:07.662Z,14.23
2024-05-09T19:50:42.106Z,14.19
2024-05-09T19:53:15.833Z,14.18
2024-05-09T19:55:44.545Z,14.02
2024-05-09T19:58:13.190Z,14.00
2024-05-09T20:00:51.194Z,13.95
2024-05-09T20:03:20.081Z,13.89
2024-05-09T20:05:52.665Z,13.86
2024-05-09T20:08:20.202Z,13.79
2024-05-09T20:10:47.777Z,13.73
2024-05-09T20:13:15.367Z,13.73
2024-05-09T20:15:43.353Z,13.77
2024-05-09T20:18:13.179Z,13.74
2024-05-09T20:20:43.068Z,13.75
2024-05-09T20:23:13.044Z,13.78
2024-05-09T20:25:41.013Z,13.76
2024-05-09T20:28:08.933Z,13.72
2024-05-09T20:30:36.871Z,13.73
2024-05-09T20:33:09.623Z,13.69
2024-05-09T20:35:37.548Z,13.63
2024-05-09T20:38:05.290Z,13.56
2024-05-09T20:40:36.983Z,13.50
2024-05-09T20:43:09.933Z,13.43
2024-05-09T20:45:38.135Z,13.38
2024-05-09T20:48:06.949Z,13.30
2024-05-09T20:50:39.409Z,13.22
2024-05-09T20:53:11.485Z,13.15
2024-05-09T20:55:40.205Z,13.09
2024-05-09T20:58:07.733Z,13.06
2024-05-09T21:00:40.039Z,13.00
2024-05-09T21:03:15.577Z,12.92
2024-05-09T21:05:46.815Z,12.87
2024-05-09T21:08:14.697Z,12.78
2024-05-09T21:10:42.153Z,12.74
2024-05-09T21:13:09.747Z,12.72
2024-05-09T21:15:37.110Z,12.70
2024-05-09T21:18:05.247Z,12.63
2024-05-09T21:20:35.112Z,12.57
2024-05-09T21:23:03.407Z,12.47
2024-05-09T21:25:31.591Z,12.51
2024-05-09T21:27:59.399Z,12.45
2024-05-09T21:30:38.616Z,12.42
2024-05-09T21:33:11.258Z,12.35
2024-05-09T21:35:40.840Z,12.33
2024-05-09T21:38:08.381Z,12.29
2024-05-09T21:40:37.321Z,12.17
2024-05-09T21:43:07.619Z,12.15
2024-05-09T21:45:35.874Z,12.13
2024-05-09T21:48:07.459Z,12.09
2024-05-09T21:50:40.389Z,12.06
2024-05-09T21:53:13.448Z,12.05
2024-05-09T21:55:41.983Z,12.00
2024-05-09T21:58:09.718Z,11.98
2024-05-09T22:00:39.678Z,11.92
2024-05-09T22:03:08.584Z,11.88
2024-05-09T22:05:37.754Z,11.87
2024-05-09T22:08:05.497Z,11.83
2024-05-09T22:10:35.373Z,11.75
2024-05-09T22:13:05.914Z,11.74
2024-05-09T22:15:39.611Z,11.71
2024-05-09T22:18:09.153Z,11.66
2024-05-09T22:20:39.536Z,11.61
2024-05-09T22:23:08.610Z,11.55
2024-05-09T22:25:39.411Z,11.51
2024-05-09T22:28:07.314Z,11.45
2024-05-09T22:30:39.860Z,11.41
2024-05-09T22:33:12.146Z,11.37
2024-05-09T22:35:41.220Z,11.31
2024-05-09T22:38:09.376Z,11.27
2024-05-09T22:40:46.043Z,11.24
2024-05-09T22:43:24.382Z,11.17
2024-05-09T22:45:56.960Z,11.12
2024-05-09T22:48:25.744Z,11.10
2024-05-09T22:50:54.742Z,11.04
2024-05-09T22:53:26.325Z,10.99
2024-05-09T22:55:53.798Z,10.91
2024-05-09T22:58:21.576Z,10.89
2024-05-09T23:00:50.309Z,10.84
2024-05-09T23:03:21.106Z,10.74
2024-05-09T23:05:48.982Z,10.73
2024-05-09T23:08:16.236Z,10.69
2024-05-09T23:10:43.620Z,10.64
2024-05-09T23:13:10.982Z,10.59
2024-05-09T23:15:38.910Z,10.56
2024-05-09T23:18:07.162Z,10.58
2024-05-09T23:20:38.530Z,10.56
2024-05-09T23:23:08.628Z,10.50
2024-05-09T23:25:38.846Z,10.30
2024-05-09T23:28:06.819Z,10.09
2024-05-09T23:30:38.743Z,10.11
2024-05-09T23:33:10.463Z,10.15
2024-05-09T23:35:38.507Z,10.20
2024-05-09T23:38:05.928Z,10.20
2024-05-09T23:40:39.451Z,10.20
2024-05-09T23:43:10.356Z,10.17
2024-05-09T23:45:38.566Z,10.12
2024-05-09T23:48:07.064Z,10.02
2024-05-09T23:50:37.647Z,10.00
2024-05-09T23:53:08.548Z,9.98
2024-05-09T23:55:37.308Z,9.94
2024-05-09T23:58:05.112Z,9.95
